Terminal Aerodrome Forecast
Issued by NWS Northern Indiana

Home | Current Version | Previous Version | Text Only | Print | Product List | Glossary On
Versions: 1 2 3 4 5 6 7 8 9 10 11 12 13 14 15 16 17 18
000
FTUS43 KIWX 241721
TAFFWA
TAF
KFWA 241721Z 2418/2518 30008KT P6SM OVC015
      TEMPO 2418/2422 OVC025
     FM242300 27005KT P6SM OVC025
     FM250200 18005KT P6SM OVC035
     FM251200 17010KT P6SM OVC015 WS020/21035KT
     FM251600 21013KT P6SM VCSH OVC015 WS020/24045KT=

USA.gov is the U.S. government's official web portal to all federal, state and local government web resources and services.